createdAt,value
2022-08-18T00:01:41.677Z,21.10
2022-08-18T00:04:28.736Z,21.20
2022-08-18T00:06:59.977Z,21.10
2022-08-18T00:09:32.256Z,21.10
2022-08-18T00:12:03.033Z,21.20
2022-08-18T00:14:32.922Z,21.10
2022-08-18T00:17:01.581Z,21.10
2022-08-18T00:19:47.193Z,21.20
2022-08-18T00:22:20.614Z,21.20
2022-08-18T00:24:53.072Z,21.20
2022-08-18T00:27:28.120Z,21.20
2022-08-18T00:30:02.257Z,21.10
2022-08-18T00:32:40.525Z,21.10
2022-08-18T00:35:13.588Z,21.10
2022-08-18T00:37:42.342Z,21.10
2022-08-18T00:40:15.227Z,21.00
2022-08-18T00:42:49.842Z,21.00
2022-08-18T00:45:25.359Z,21.00
2022-08-18T00:47:54.304Z,21.00
2022-08-18T00:50:27.898Z,21.00
2022-08-18T00:53:01.905Z,21.00
2022-08-18T00:55:32.652Z,20.90
2022-08-18T00:58:11.121Z,20.90
2022-08-18T01:00:40.825Z,21.00
2022-08-18T01:03:17.012Z,20.90
2022-08-18T01:06:02.731Z,20.90
2022-08-18T01:08:31.646Z,20.90
2022-08-18T01:11:03.712Z,20.80
2022-08-18T01:13:34.658Z,20.80
2022-08-18T01:16:24.812Z,20.80
2022-08-18T01:19:10.857Z,20.80
2022-08-18T01:21:53.319Z,20.70
2022-08-18T01:24:42.679Z,20.70
2022-08-18T01:27:17.814Z,20.70
2022-08-18T01:29:46.986Z,20.70
2022-08-18T01:32:19.566Z,20.60
2022-08-18T01:34:50.064Z,20.60
2022-08-18T01:37:21.106Z,20.60
2022-08-18T01:41:20.988Z,20.60
2022-08-18T01:42:43.321Z,20.50
2022-08-18T01:45:14.716Z,20.50
2022-08-18T01:47:47.739Z,20.60
2022-08-18T01:50:27.163Z,20.50
2022-08-18T01:52:55.459Z,20.50
2022-08-18T01:55:28.270Z,20.60
2022-08-18T01:57:57.274Z,20.50
2022-08-18T02:00:26.284Z,20.50
2022-08-18T02:02:57.268Z,20.50
2022-08-18T02:05:35.629Z,20.50
2022-08-18T02:08:04.978Z,20.50
2022-08-18T02:10:35.243Z,20.50
2022-08-18T02:13:03.888Z,20.60
2022-08-18T02:15:32.623Z,20.60
2022-08-18T02:18:00.954Z,20.50
2022-08-18T02:20:29.317Z,20.50
2022-08-18T02:22:58.574Z,20.50
2022-08-18T02:25:27.951Z,20.40
2022-08-18T02:27:58.229Z,20.40
2022-08-18T02:30:26.541Z,20.40
2022-08-18T02:32:56.595Z,20.40
2022-08-18T02:35:24.874Z,20.40
2022-08-18T02:37:54.596Z,20.40
2022-08-18T02:40:22.961Z,20.40
2022-08-18T02:42:52.764Z,20.40
2022-08-18T02:45:24.141Z,20.40
2022-08-18T02:47:54.750Z,20.30
2022-08-18T02:50:24.898Z,20.40
2022-08-18T02:52:54.212Z,20.30
2022-08-18T02:55:22.648Z,20.40
2022-08-18T02:57:51.091Z,20.40
2022-08-18T03:00:20.457Z,20.30
2022-08-18T03:02:51.459Z,20.40
2022-08-18T03:05:20.986Z,20.40
2022-08-18T03:07:50.458Z,20.40
2022-08-18T03:10:33.166Z,20.40
2022-08-18T03:13:02.773Z,20.30
2022-08-18T03:15:31.152Z,20.30
2022-08-18T03:18:02.117Z,20.30
2022-08-18T03:20:31.624Z,20.30
2022-08-18T03:23:05.536Z,20.30
2022-08-18T03:25:44.671Z,20.20
2022-08-18T03:28:13.786Z,20.20
2022-08-18T03:30:43.400Z,20.20
2022-08-18T03:33:13.087Z,20.20
2022-08-18T03:35:41.856Z,20.20
2022-08-18T03:38:10.285Z,20.40
2022-08-18T03:40:38.832Z,20.40
2022-08-18T03:43:49.655Z,20.40
2022-08-18T03:45:56.336Z,20.40
2022-08-18T03:48:26.293Z,20.30
2022-08-18T03:50:54.556Z,20.30
2022-08-18T03:53:22.845Z,20.30
2022-08-18T03:55:52.314Z,20.20
2022-08-18T03:58:22.951Z,20.10
2022-08-18T04:00:51.368Z,20.10
2022-08-18T04:03:19.914Z,20.10
2022-08-18T04:05:49.525Z,20.10
2022-08-18T04:08:17.733Z,20.20
2022-08-18T04:10:46.422Z,20.30
2022-08-18T04:13:14.822Z,20.30
2022-08-18T04:15:43.002Z,20.40
2022-08-18T04:18:12.076Z,20.40
2022-08-18T04:20:59.213Z,20.40
2022-08-18T04:23:29.774Z,20.40
2022-08-18T04:26:11.104Z,20.30
2022-08-18T04:28:48.047Z,20.30
2022-08-18T04:31:18.070Z,20.30
2022-08-18T04:33:46.491Z,20.40
2022-08-18T04:36:20.685Z,20.40
2022-08-18T04:38:50.868Z,20.40
2022-08-18T04:41:20.082Z,20.50
2022-08-18T04:43:49.731Z,20.50
2022-08-18T04:46:18.502Z,20.50
2022-08-18T04:48:58.940Z,20.60
2022-08-18T04:52:26.720Z,20.60
2022-08-18T04:54:18.877Z,20.60
2022-08-18T04:56:47.160Z,20.60
2022-08-18T04:59:16.357Z,20.70
2022-08-18T05:01:47.566Z,20.70
2022-08-18T05:04:18.643Z,20.80
2022-08-18T05:06:47.470Z,20.80
2022-08-18T05:09:23.087Z,20.80
2022-08-18T05:11:52.835Z,20.90
2022-08-18T05:14:21.346Z,20.80
2022-08-18T05:16:49.766Z,20.80
2022-08-18T05:19:23.418Z,20.80
2022-08-18T05:22:00.095Z,20.80
2022-08-18T05:24:37.552Z,20.80
2022-08-18T05:27:09.002Z,20.80
2022-08-18T05:29:41.679Z,20.80
2022-08-18T05:32:30.341Z,20.80
2022-08-18T05:35:07.762Z,20.90
2022-08-18T05:38:04.971Z,20.90
2022-08-18T05:40:35.124Z,21.00
2022-08-18T05:43:08.164Z,21.00
2022-08-18T05:45:36.836Z,21.10
2022-08-18T05:48:05.557Z,21.10
2022-08-18T05:50:38.734Z,21.20
2022-08-18T05:53:15.363Z,21.30
2022-08-18T05:56:12.869Z,21.30
2022-08-18T05:58:50.398Z,21.40
2022-08-18T06:01:29.687Z,21.40
2022-08-18T06:04:08.163Z,21.50
2022-08-18T06:06:38.761Z,21.50
2022-08-18T06:09:16.771Z,21.50
2022-08-18T06:11:45.560Z,21.60
2022-08-18T06:14:15.427Z,21.70
2022-08-18T06:17:00.197Z,21.80
2022-08-18T06:19:44.267Z,21.80
2022-08-18T06:22:29.856Z,21.80
2022-08-18T06:25:12.240Z,21.90
2022-08-18T06:27:55.694Z,22.00
2022-08-18T06:30:44.404Z,22.10
2022-08-18T06:33:36.930Z,22.10
2022-08-18T06:36:18.196Z,22.10
2022-08-18T06:39:03.476Z,21.90
2022-08-18T06:41:43.057Z,21.80
2022-08-18T06:44:20.911Z,21.70
2022-08-18T06:46:57.575Z,21.60
2022-08-18T06:49:39.857Z,21.60
2022-08-18T06:52:23.325Z,21.60
2022-08-18T06:54:52.942Z,21.50
2022-08-18T06:57:29.750Z,21.60
2022-08-18T07:00:05.322Z,21.60
2022-08-18T07:02:51.964Z,21.70
2022-08-18T07:05:25.725Z,21.80
2022-08-18T07:08:30.523Z,21.60
2022-08-18T07:11:14.887Z,21.60
2022-08-18T07:13:45.986Z,21.60
2022-08-18T07:16:40.557Z,21.50
2022-08-18T07:19:16.863Z,21.40
2022-08-18T07:21:46.118Z,21.20
2022-08-18T07:24:26.638Z,21.20
2022-08-18T07:27:04.613Z,21.10
2022-08-18T07:29:39.101Z,21.20
2022-08-18T07:32:21.482Z,21.20
2022-08-18T07:34:59.817Z,21.20
2022-08-18T07:37:35.915Z,21.20
2022-08-18T07:40:17.379Z,21.20
2022-08-18T07:43:01.197Z,21.20
2022-08-18T07:45:38.922Z,21.10
2022-08-18T07:48:36.948Z,21.10
2022-08-18T07:51:20.861Z,21.10
2022-08-18T07:54:02.785Z,21.10
2022-08-18T07:56:42.998Z,21.10
2022-08-18T07:59:22.077Z,21.10
2022-08-18T08:02:01.869Z,21.00
2022-08-18T08:04:43.507Z,21.00
2022-08-18T08:07:25.397Z,21.10
2022-08-18T08:10:22.971Z,21.10
2022-08-18T08:13:09.139Z,21.10
2022-08-18T08:15:54.803Z,21.10
2022-08-18T08:18:37.649Z,21.20
2022-08-18T08:21:11.920Z,21.20
2022-08-18T08:23:51.597Z,21.20
2022-08-18T08:26:37.898Z,21.30
2022-08-18T08:29:22.665Z,21.40
2022-08-18T08:32:02.546Z,21.50
2022-08-18T08:34:40.798Z,21.60
2022-08-18T08:37:15.821Z,21.60
2022-08-18T08:39:53.406Z,21.60
2022-08-18T08:42:33.105Z,21.70
2022-08-18T08:45:09.591Z,21.80
2022-08-18T08:47:48.808Z,22.00
2022-08-18T08:50:22.882Z,22.10
2022-08-18T08:52:57.378Z,22.30
2022-08-18T08:55:31.938Z,22.40
2022-08-18T08:58:18.051Z,22.40
2022-08-18T09:00:48.719Z,22.40
2022-08-18T09:03:39.966Z,22.40
2022-08-18T09:06:24.291Z,22.40
2022-08-18T09:09:16.120Z,22.30
2022-08-18T09:12:25.963Z,22.40
2022-08-18T09:15:43.287Z,22.50
2022-08-18T09:18:39.579Z,22.60
2022-08-18T09:21:27.897Z,22.60
2022-08-18T09:24:10.761Z,22.50
2022-08-18T09:26:48.717Z,22.70
2022-08-18T09:29:27.375Z,22.70
2022-08-18T09:32:44.963Z,22.70
2022-08-18T09:35:45.195Z,22.60
2022-08-18T09:38:47.790Z,22.50
2022-08-18T09:41:35.178Z,22.60
2022-08-18T09:44:21.517Z,22.80
2022-08-18T09:47:00.616Z,22.90
2022-08-18T09:49:53.532Z,22.90
2022-08-18T09:52:59.195Z,22.90
2022-08-18T09:56:01.691Z,22.90
2022-08-18T09:59:02.087Z,23.00
2022-08-18T10:01:42.033Z,23.10
2022-08-18T10:04:34.129Z,23.20
2022-08-18T10:07:21.086Z,23.40
2022-08-18T10:10:59.320Z,23.50
2022-08-18T10:13:21.648Z,23.40
2022-08-18T10:16:10.709Z,23.40
2022-08-18T10:19:05.847Z,23.40
2022-08-18T10:22:06.926Z,23.60
2022-08-18T10:24:42.078Z,23.80
2022-08-18T10:27:38.955Z,23.90
2022-08-18T10:31:10.111Z,24.00
2022-08-18T10:34:16.445Z,24.00
2022-08-18T10:36:53.377Z,24.00
2022-08-18T10:39:25.397Z,24.00
2022-08-18T10:42:15.755Z,24.00
2022-08-18T10:44:47.994Z,23.90
2022-08-18T10:47:25.549Z,23.80
2022-08-18T10:50:10.217Z,23.80
2022-08-18T10:53:33.128Z,23.80
2022-08-18T10:55:58.008Z,23.80
2022-08-18T10:58:50.973Z,23.80
2022-08-18T11:01:57.503Z,23.90
2022-08-18T11:04:36.948Z,23.90
2022-08-18T11:07:15.754Z,24.00
2022-08-18T11:10:04.689Z,24.00
2022-08-18T11:13:07.705Z,24.10
2022-08-18T11:15:50.464Z,24.40
2022-08-18T11:21:34.451Z,24.70
2022-08-18T11:24:18.543Z,24.70
2022-08-18T11:26:53.051Z,24.70
2022-08-18T11:29:35.248Z,25.00
2022-08-18T11:32:11.350Z,24.90
2022-08-18T11:34:53.035Z,25.00
2022-08-18T11:37:28.319Z,25.10
2022-08-18T11:43:29.847Z,25.30
2022-08-18T11:46:27.775Z,25.50
2022-08-18T11:48:58.035Z,25.60
2022-08-18T11:51:29.396Z,25.60
2022-08-18T11:54:01.876Z,25.60
2022-08-18T11:56:37.691Z,25.70
2022-08-18T11:59:52.733Z,25.90
2022-08-18T12:02:22.369Z,26.10
2022-08-18T12:04:55.134Z,25.80
2022-08-18T12:07:31.931Z,25.90
2022-08-18T12:10:26.422Z,26.10
2022-08-18T12:13:01.250Z,26.10
2022-08-18T12:15:43.857Z,26.10
2022-08-18T12:18:26.022Z,26.30
2022-08-18T12:20:58.804Z,26.20
2022-08-18T12:23:27.937Z,26.30
2022-08-18T12:26:18.747Z,26.50
2022-08-18T12:29:01.467Z,26.50
2022-08-18T12:31:42.440Z,26.60
2022-08-18T12:34:18.022Z,26.80
2022-08-18T12:36:56.221Z,26.80
2022-08-18T12:39:25.539Z,26.60
2022-08-18T12:41:53.766Z,26.60
2022-08-18T12:44:23.625Z,26.70
2022-08-18T12:46:57.215Z,26.80
2022-08-18T12:49:28.228Z,26.80
2022-08-18T12:51:58.540Z,26.70
2022-08-18T12:54:26.843Z,26.90
2022-08-18T12:56:57.862Z,27.00
2022-08-18T12:59:32.545Z,27.10
2022-08-18T13:02:06.879Z,27.10
2022-08-18T13:04:37.392Z,27.10
2022-08-18T13:07:07.878Z,27.00
2022-08-18T13:09:52.555Z,26.90
2022-08-18T13:12:22.457Z,26.90
2022-08-18T13:14:55.190Z,26.80
2022-08-18T13:17:32.165Z,26.80
2022-08-18T13:20:05.648Z,26.80
2022-08-18T13:22:33.951Z,26.40
2022-08-18T13:25:05.386Z,26.40
2022-08-18T13:27:35.739Z,26.40
2022-08-18T13:30:29.767Z,26.30
2022-08-18T13:33:02.451Z,26.40
2022-08-18T13:35:38.034Z,26.40
2022-08-18T13:38:17.087Z,26.60
2022-08-18T13:40:49.663Z,26.80
2022-08-18T13:43:20.997Z,26.80
2022-08-18T13:45:56.063Z,26.70
2022-08-18T13:48:25.639Z,26.70
2022-08-18T13:50:56.480Z,26.70
2022-08-18T13:53:27.366Z,26.90
2022-08-18T13:55:59.016Z,27.10
2022-08-18T13:58:29.610Z,26.90
2022-08-18T14:01:39.705Z,26.80
2022-08-18T14:03:51.599Z,26.80
2022-08-18T14:06:22.168Z,26.80
2022-08-18T14:08:51.502Z,26.70
2022-08-18T14:11:21.291Z,26.50
2022-08-18T14:13:49.864Z,26.30
2022-08-18T14:16:21.063Z,26.30
2022-08-18T14:19:10.542Z,26.40
2022-08-18T14:22:00.777Z,26.40
2022-08-18T14:24:48.730Z,26.50
2022-08-18T14:27:18.258Z,26.60
2022-08-18T14:29:48.766Z,26.60
2022-08-18T14:32:29.223Z,26.60
2022-08-18T14:35:01.050Z,26.60
2022-08-18T14:37:50.816Z,26.70
2022-08-18T14:40:20.210Z,26.70
2022-08-18T14:42:54.489Z,26.70
2022-08-18T14:45:31.242Z,26.70
2022-08-18T14:48:06.788Z,26.70
2022-08-18T14:50:37.079Z,26.60
2022-08-18T14:53:06.169Z,26.30
2022-08-18T14:55:34.787Z,26.30
2022-08-18T14:58:07.141Z,26.30
2022-08-18T15:00:53.695Z,26.20
2022-08-18T15:03:30.818Z,26.20
2022-08-18T15:06:04.656Z,26.10
2022-08-18T15:08:35.382Z,25.90
2022-08-18T15:11:11.768Z,25.80
2022-08-18T15:13:43.471Z,25.70
2022-08-18T15:16:14.512Z,25.60
2022-08-18T15:18:46.272Z,25.70
2022-08-18T15:21:35.358Z,25.80
2022-08-18T15:24:26.093Z,25.80
2022-08-18T15:26:57.518Z,25.80
2022-08-18T15:29:29.423Z,25.60
2022-08-18T15:32:02.065Z,25.60
2022-08-18T15:34:47.268Z,25.70
2022-08-18T15:37:24.051Z,25.80
2022-08-18T15:40:05.762Z,26.00
2022-08-18T15:42:34.213Z,26.10
2022-08-18T15:45:11.481Z,26.20
2022-08-18T15:47:41.560Z,26.20
2022-08-18T15:50:25.355Z,26.20
2022-08-18T15:52:58.894Z,26.30
2022-08-18T15:55:35.731Z,26.30
2022-08-18T15:58:10.871Z,26.30
2022-08-18T16:00:45.590Z,26.30
2022-08-18T16:03:15.979Z,26.20
2022-08-18T16:05:52.963Z,26.20
2022-08-18T16:08:24.174Z,26.20
2022-08-18T16:10:53.871Z,26.20
2022-08-18T16:13:24.507Z,26.20
2022-08-18T16:15:53.319Z,26.20
2022-08-18T16:18:21.982Z,26.10
2022-08-18T16:20:52.711Z,25.90
2022-08-18T16:23:22.045Z,25.80
2022-08-18T16:25:50.610Z,25.70
2022-08-18T16:28:19.010Z,25.50
2022-08-18T16:30:48.426Z,25.30
2022-08-18T16:33:16.883Z,25.10
2022-08-18T16:35:47.548Z,24.80
2022-08-18T16:38:17.204Z,24.80
2022-08-18T16:40:45.622Z,24.80
2022-08-18T16:43:14.797Z,24.80
2022-08-18T16:45:43.442Z,24.60
2022-08-18T16:48:16.655Z,24.70
2022-08-18T16:50:46.347Z,24.70
2022-08-18T16:53:16.155Z,24.60
2022-08-18T16:55:44.504Z,24.70
2022-08-18T16:58:31.239Z,24.60
2022-08-18T17:01:18.973Z,24.60
2022-08-18T17:04:13.848Z,24.50
2022-08-18T17:06:50.100Z,24.40
2022-08-18T17:09:22.177Z,24.50
2022-08-18T17:11:52.529Z,24.50
2022-08-18T17:14:23.881Z,24.50
2022-08-18T17:16:55.131Z,24.40
2022-08-18T17:19:26.864Z,24.20
2022-08-18T17:21:55.382Z,24.10
2022-08-18T17:24:31.710Z,24.00
2022-08-18T17:27:25.635Z,23.90
2022-08-18T17:30:06.850Z,23.90
2022-08-18T17:32:46.614Z,23.90
2022-08-18T17:35:28.661Z,23.90
2022-08-18T17:38:04.743Z,23.90
2022-08-18T17:40:43.624Z,23.90
2022-08-18T17:43:17.223Z,23.80
2022-08-18T17:45:49.871Z,23.90
2022-08-18T17:48:24.594Z,23.80
2022-08-18T17:51:19.228Z,23.80
2022-08-18T17:53:47.990Z,23.80
2022-08-18T17:56:22.056Z,23.70
2022-08-18T17:58:56.547Z,23.60
2022-08-18T18:01:27.419Z,23.60
2022-08-18T18:03:55.917Z,23.50
2022-08-18T18:06:34.711Z,23.40
2022-08-18T18:09:08.865Z,23.30
2022-08-18T18:11:47.433Z,23.20
2022-08-18T18:14:28.137Z,23.10
2022-08-18T18:17:13.868Z,23.00
2022-08-18T18:19:45.003Z,23.00
2022-08-18T18:22:23.867Z,23.00
2022-08-18T18:24:55.573Z,23.10
2022-08-18T18:27:30.764Z,23.10
2022-08-18T18:30:03.152Z,23.00
2022-08-18T18:32:38.437Z,22.90
2022-08-18T18:35:17.150Z,22.80
2022-08-18T18:37:54.804Z,22.80
2022-08-18T18:40:33.657Z,22.70
2022-08-18T18:43:24.824Z,22.60
2022-08-18T18:46:30.237Z,22.60
2022-08-18T18:49:14.487Z,22.60
2022-08-18T18:51:58.945Z,22.40
2022-08-18T18:54:49.657Z,22.30
2022-08-18T18:57:31.995Z,22.30
2022-08-18T19:00:18.303Z,22.20
2022-08-18T19:03:04.536Z,22.20
2022-08-18T19:05:39.282Z,22.10
2022-08-18T19:08:26.429Z,22.10
2022-08-18T19:11:05.573Z,22.10
2022-08-18T19:13:40.445Z,22.10
2022-08-18T19:16:23.604Z,22.10
2022-08-18T19:19:37.649Z,22.20
2022-08-18T19:22:04.340Z,22.10
2022-08-18T19:24:43.863Z,22.10
2022-08-18T19:27:26.279Z,22.10
2022-08-18T19:30:02.428Z,22.00
2022-08-18T19:32:50.537Z,22.20
2022-08-18T19:35:35.382Z,22.30
2022-08-18T19:38:20.925Z,22.30
2022-08-18T19:40:57.694Z,22.10
2022-08-18T19:43:41.679Z,22.10
2022-08-18T19:46:21.555Z,22.00
2022-08-18T19:49:01.693Z,21.90
2022-08-18T19:51:35.811Z,21.70
2022-08-18T19:54:38.748Z,21.80
2022-08-18T19:57:34.538Z,21.80
2022-08-18T20:00:35.725Z,21.80
2022-08-18T20:03:31.334Z,21.90
2022-08-18T20:06:34.519Z,21.90
2022-08-18T20:09:55.197Z,21.80
2022-08-18T20:12:48.109Z,21.70
2022-08-18T20:15:21.629Z,21.60
2022-08-18T20:18:19.356Z,21.60
2022-08-18T20:21:47.586Z,21.70
2022-08-18T20:24:45.321Z,21.80
2022-08-18T20:27:35.717Z,21.70
2022-08-18T20:30:33.915Z,21.60
2022-08-18T20:33:21.532Z,21.60
2022-08-18T20:36:12.226Z,21.60
2022-08-18T20:38:45.533Z,21.60
2022-08-18T20:41:39.059Z,21.60
2022-08-18T20:44:43.276Z,21.60
2022-08-18T20:47:40.094Z,21.60
2022-08-18T20:50:44.365Z,21.50
2022-08-18T20:53:33.498Z,21.50
2022-08-18T20:56:32.468Z,21.50
2022-08-18T20:59:16.562Z,21.60
2022-08-18T21:01:54.498Z,21.60
2022-08-18T21:04:45.315Z,21.50
2022-08-18T21:07:37.384Z,21.50
2022-08-18T21:10:14.551Z,21.50
2022-08-18T21:12:53.129Z,21.50
2022-08-18T21:15:24.266Z,21.50
2022-08-18T21:18:00.982Z,21.40
2022-08-18T21:20:31.461Z,21.30
2022-08-18T21:23:08.499Z,21.30
2022-08-18T21:25:37.475Z,21.30
2022-08-18T21:28:07.666Z,21.10
2022-08-18T21:30:36.029Z,21.10
2022-08-18T21:33:21.082Z,21.00
2022-08-18T21:35:49.615Z,20.80
2022-08-18T21:38:27.391Z,20.70
2022-08-18T21:41:00.881Z,20.80
2022-08-18T21:43:49.434Z,20.80
2022-08-18T21:46:26.235Z,20.80
2022-08-18T21:48:56.991Z,20.80
2022-08-18T21:51:28.752Z,20.80
2022-08-18T21:53:58.285Z,20.70
2022-08-18T21:56:30.095Z,20.70
2022-08-18T21:59:13.484Z,20.70
2022-08-18T22:01:51.129Z,20.80
2022-08-18T22:04:29.212Z,20.70
2022-08-18T22:07:01.575Z,20.60
2022-08-18T22:09:53.472Z,20.70
2022-08-18T22:12:46.268Z,20.60
2022-08-18T22:15:20.292Z,20.60
2022-08-18T22:17:56.308Z,20.60
2022-08-18T22:20:46.866Z,20.60
2022-08-18T22:23:53.943Z,20.60
2022-08-18T22:26:27.193Z,20.60
2022-08-18T22:29:02.515Z,20.60
2022-08-18T22:31:36.146Z,20.60
2022-08-18T22:34:08.802Z,20.60
2022-08-18T22:36:41.661Z,20.60
2022-08-18T22:39:14.820Z,20.60
2022-08-18T22:41:46.175Z,20.60
2022-08-18T22:44:14.602Z,20.50
2022-08-18T22:46:44.325Z,20.50
2022-08-18T22:49:12.525Z,20.60
2022-08-18T22:51:40.807Z,20.50
2022-08-18T22:54:10.908Z,20.60
2022-08-18T22:56:39.541Z,20.60
2022-08-18T22:59:22.503Z,20.60
2022-08-18T23:01:52.629Z,20.70
2022-08-18T23:04:24.573Z,20.70
2022-08-18T23:06:54.124Z,20.70
2022-08-18T23:09:26.493Z,20.80
2022-08-18T23:11:58.024Z,20.80
2022-08-18T23:14:27.304Z,20.80
2022-08-18T23:16:56.865Z,20.80
2022-08-18T23:19:25.263Z,20.80
2022-08-18T23:21:53.615Z,20.70
2022-08-18T23:24:22.677Z,20.70
2022-08-18T23:26:50.978Z,20.70
2022-08-18T23:29:21.047Z,20.80
2022-08-18T23:31:51.405Z,20.80
2022-08-18T23:34:24.801Z,20.80
2022-08-18T23:36:56.452Z,20.80
2022-08-18T23:39:26.347Z,20.80
2022-08-18T23:41:55.282Z,20.90
2022-08-18T23:44:27.754Z,20.90
2022-08-18T23:46:57.847Z,20.80
2022-08-18T23:49:29.060Z,20.70
2022-08-18T23:51:59.181Z,20.60
2022-08-18T23:54:30.870Z,20.60
2022-08-18T23:56:59.777Z,20.60
2022-08-18T23:59:29.517Z,20.50
